MMVR/VER METAR and TAF weather

Enter ICAO airport designator
Station Type Date Time Source
MMVR METAR 2021/09/28 02:46 UTC NOAA

MMVR 280246Z 00000KT 7SM SKC 27/24 A2996


Station Type Date Time Source
MMVR Decoded METAR 2021/09/28 02:46 UTC NOAA

Veracruz / Las Bajadas / General Heriberto Jara, Mexico (MMVR) 19-09N 096-11W
Sep 27, 2021 - 10:46 PM EDT / 2021.09.28 0246 UTC
Wind: Calm:0
Visibility: 7 mile(s):0
Sky conditions: clear
Temperature: 80 F (27 C)
Dew Point: 75 F (24 C)
Relative Humidity: 83%
Pressure (altimeter): 29.96 in. Hg (1014 hPa)
ob: MMVR 280246Z 00000KT 7SM SKC 27/24 A2996
cycle: 3

Station Type Date Time Source
MMVR TAF 2021/09/26 14:43 UTC NOAA

TAF
AMD MMVR 261336Z 2614/2706 00000KT P6SM SCT070 TX31/2621Z TN22/2614Z
FM261900 03010KT P6SM SCT015 BKN080 PROB40 2622/2702 5SM TSRA BKN015CB

Example: see airport list